Check out our new PWSWeather beta!
PWSweather.com
Personal Weather Stations
Station Observations
KOHREFORM1
Reform, Ohio, Newark, OH 43055

Reform, OhioNewark, OH 43055

Lat: 40.1502, Lon: -82.2417

Elevation: 1043

Station Type: Davis Vantage Pro 2 Plus

randysweatheronthehill.com

High Low Average
Temperature 56.6°F13.7°C 34.6°F1.4°C 44.1°F6.7°C
Dew Point 50.9°F10.5°C 32.6°F0.3°C 39.8°F4.3°C
Winds 11.0 mph 17.7 kmh Calm Calm 2.0 mph SW3.2 kmh SW
Wind Gusts 28.0 mph45.1 kmh -- 8.0 mph12.9 kmh
Humidity 98% 55% 86%
Pressure 29.72 in1006.4 mb 29.39 in995.3 mb -
Precipitation 0.75 in19.1 mm - -
Hour Temp Dew Point Humidity Winds Wind Gusts Pressure Precip Precip Rate Daily Precip Total
12:01 AM 39.5°F4.2°C 37.6°F3.1°C 93% Calm Calm 7.0 mph11.3 kmh 29.72 in1006.4 mb 0.00 in0.0 mm 0.00 in0.0 mm 0.00 in0.0 mm
12:06 AM 39.5°F4.2°C 37.6°F3.1°C 93% 1.0 mph ENE1.6 kmh ENE 5.0 mph8.0 kmh 29.71 in1006.1 mb 0.00 in0.0 mm 0.00 in0.0 mm 0.00 in0.0 mm
12:11 AM 39.4°F4.1°C 37.8°F3.2°C 94% 1.0 mph SE1.6 kmh SE 5.0 mph8.0 kmh 29.71 in1006.1 mb 0.00 in0.0 mm 0.00 in0.0 mm 0.00 in0.0 mm
12:16 AM 39.4°F4.1°C 37.8°F3.2°C 94% 3.0 mph ESE4.8 kmh ESE 5.0 mph8.0 kmh 29.71 in1006.1 mb 0.00 in0.0 mm 0.00 in0.0 mm 0.00 in0.0 mm
12:21 AM 39.3°F4.1°C 37.7°F3.2°C 94% 2.0 mph ESE3.2 kmh ESE 5.0 mph8.0 kmh 29.71 in1006.1 mb 0.00 in0.0 mm 0.00 in0.0 mm 0.00 in0.0 mm
12:26 AM 39.3°F4.1°C 37.7°F3.2°C 94% Calm Calm 5.0 mph8.0 kmh 29.71 in1006.1 mb 0.00 in0.0 mm 0.00 in0.0 mm 0.00 in0.0 mm
12:31 AM 39.3°F4.1°C 37.7°F3.2°C 94% 1.0 mph E1.6 kmh E 5.0 mph8.0 kmh 29.70 in1005.8 mb 0.00 in0.0 mm 0.00 in0.0 mm 0.00 in0.0 mm
12:36 AM 39.3°F4.1°C 37.7°F3.2°C 94% 1.0 mph E1.6 kmh E 5.0 mph8.0 kmh 29.70 in1005.8 mb 0.00 in0.0 mm 0.00 in0.0 mm 0.00 in0.0 mm
12:41 AM 39.2°F4.0°C 37.6°F3.1°C 94% 1.0 mph SE1.6 kmh SE 5.0 mph8.0 kmh 29.69 in1005.4 mb 0.00 in0.0 mm 0.00 in0.0 mm 0.00 in0.0 mm
12:46 AM 39.2°F4.0°C 37.6°F3.1°C 94% 2.0 mph ESE3.2 kmh ESE 6.0 mph9.7 kmh 29.69 in1005.4 mb 0.00 in0.0 mm 0.00 in0.0 mm 0.00 in0.0 mm
12:51 AM 39.2°F4.0°C 37.6°F3.1°C 94% 1.0 mph E1.6 kmh E 6.0 mph9.7 kmh 29.68 in1005.1 mb 0.00 in0.0 mm 0.00 in0.0 mm 0.00 in0.0 mm
12:56 AM 39.1°F3.9°C 37.5°F3.1°C 94% Calm Calm 6.0 mph9.7 kmh 29.68 in1005.1 mb 0.00 in0.0 mm 0.00 in0.0 mm 0.00 in0.0 mm
01:01 AM 39.1°F3.9°C 37.5°F3.1°C 94% 1.0 mph ESE1.6 kmh ESE 8.0 mph12.9 kmh 29.68 in1005.1 mb 0.00 in0.0 mm 0.00 in0.0 mm 0.01 in0.3 mm
01:06 AM 39.2°F4.0°C 37.6°F3.1°C 94% 2.0 mph E3.2 kmh E 9.0 mph14.5 kmh 29.67 in1004.7 mb 0.00 in0.0 mm 0.00 in0.0 mm 0.01 in0.3 mm
01:11 AM 39.1°F3.9°C 37.8°F3.2°C 95% 2.0 mph E3.2 kmh E 9.0 mph14.5 kmh 29.66 in1004.4 mb 0.00 in0.0 mm 0.00 in0.0 mm 0.01 in0.3 mm
01:16 AM 39.1°F3.9°C 37.8°F3.2°C 95% 1.0 mph E1.6 kmh E 9.0 mph14.5 kmh 29.66 in1004.4 mb 0.00 in0.0 mm 0.00 in0.0 mm 0.01 in0.3 mm
01:21 AM 39.1°F3.9°C 37.8°F3.2°C 95% 2.0 mph ESE3.2 kmh ESE 9.0 mph14.5 kmh 29.66 in1004.4 mb 0.00 in0.0 mm 0.00 in0.0 mm 0.01 in0.3 mm
01:26 AM 39.1°F3.9°C 37.8°F3.2°C 95% 7.0 mph ESE11.3 kmh ESE 7.0 mph11.3 kmh 29.66 in1004.4 mb 0.00 in0.0 mm 0.00 in0.0 mm 0.01 in0.3 mm
01:31 AM 39.1°F3.9°C 37.8°F3.2°C 95% 2.0 mph ESE3.2 kmh ESE 7.0 mph11.3 kmh 29.65 in1004.1 mb 0.00 in0.0 mm 0.00 in0.0 mm 0.01 in0.3 mm
01:36 AM 39.2°F4.0°C 37.9°F3.3°C 95% 4.0 mph E6.4 kmh E 7.0 mph11.3 kmh 29.64 in1003.7 mb 0.00 in0.0 mm 0.00 in0.0 mm 0.01 in0.3 mm
01:41 AM 39.2°F4.0°C 37.9°F3.3°C 95% Calm Calm 7.0 mph11.3 kmh 29.65 in1004.1 mb 0.00 in0.0 mm 0.00 in0.0 mm 0.01 in0.3 mm
01:46 AM 39.3°F4.1°C 38.0°F3.3°C 95% 2.0 mph SE3.2 kmh SE 7.0 mph11.3 kmh 29.64 in1003.7 mb 0.00 in0.0 mm 0.00 in0.0 mm 0.01 in0.3 mm
01:51 AM 39.3°F4.1°C 38.0°F3.3°C 95% 1.0 mph ESE1.6 kmh ESE 7.0 mph11.3 kmh 29.63 in1003.4 mb 0.00 in0.0 mm 0.00 in0.0 mm 0.01 in0.3 mm
01:56 AM 39.3°F4.1°C 38.0°F3.3°C 95% 1.0 mph ESE1.6 kmh ESE 7.0 mph11.3 kmh 29.63 in1003.4 mb 0.00 in0.0 mm 0.00 in0.0 mm 0.02 in0.5 mm
02:01 AM 39.3°F4.1°C 38.0°F3.3°C 95% Calm Calm 1.0 mph1.6 kmh 29.62 in1003.0 mb 0.00 in0.0 mm 0.00 in0.0 mm 0.02 in0.5 mm
02:06 AM 39.4°F4.1°C 38.1°F3.4°C 95% Calm Calm 5.0 mph8.0 kmh 29.61 in1002.7 mb 0.00 in0.0 mm 0.00 in0.0 mm 0.02 in0.5 mm
02:11 AM 39.4°F4.1°C 38.1°F3.4°C 95% 1.0 mph S1.6 kmh S 6.0 mph9.7 kmh 29.61 in1002.7 mb 0.00 in0.0 mm 0.00 in0.0 mm 0.02 in0.5 mm
02:16 AM 39.4°F4.1°C 38.4°F3.6°C 96% 3.0 mph SE4.8 kmh SE 7.0 mph11.3 kmh 29.61 in1002.7 mb 0.00 in0.0 mm 0.00 in0.0 mm 0.02 in0.5 mm
02:21 AM 39.5°F4.2°C 38.5°F3.6°C 96% Calm Calm 7.0 mph11.3 kmh 29.61 in1002.7 mb 0.00 in0.0 mm 0.00 in0.0 mm 0.02 in0.5 mm
02:26 AM 39.5°F4.2°C 38.5°F3.6°C 96% 2.0 mph E3.2 kmh E 6.0 mph9.7 kmh 29.61 in1002.7 mb 0.00 in0.0 mm 0.00 in0.0 mm 0.02 in0.5 mm
02:31 AM 39.6°F4.2°C 38.6°F3.7°C 96% Calm Calm 6.0 mph9.7 kmh 29.61 in1002.7 mb 0.00 in0.0 mm 0.00 in0.0 mm 0.03 in0.8 mm
02:36 AM 39.7°F4.3°C 38.7°F3.7°C 96% 1.0 mph ENE1.6 kmh ENE 3.0 mph4.8 kmh 29.60 in1002.4 mb 0.07 in1.8 mm 0.84 in21.3 mm 0.04 in1.0 mm
02:41 AM 39.8°F4.3°C 38.8°F3.8°C 96% 1.0 mph E1.6 kmh E 3.0 mph4.8 kmh 29.60 in1002.4 mb 0.07 in1.8 mm 0.00 in0.0 mm 0.04 in1.0 mm
02:46 AM 39.9°F4.4°C 38.9°F3.8°C 96% Calm Calm 3.0 mph4.8 kmh 29.60 in1002.4 mb 0.05 in1.3 mm 0.00 in0.0 mm 0.04 in1.0 mm
02:51 AM 40.0°F4.4°C 39.0°F3.9°C 96% 1.0 mph S1.6 kmh S 7.0 mph11.3 kmh 29.59 in1002.0 mb 0.00 in0.0 mm 0.00 in0.0 mm 0.04 in1.0 mm
02:56 AM 40.1°F4.5°C 39.1°F3.9°C 96% 3.0 mph ENE4.8 kmh ENE 7.0 mph11.3 kmh 29.59 in1002.0 mb 0.00 in0.0 mm 0.00 in0.0 mm 0.05 in1.3 mm
03:01 AM 40.2°F4.6°C 39.2°F4.0°C 96% 2.0 mph ESE3.2 kmh ESE 3.0 mph4.8 kmh 29.58 in1001.7 mb 0.00 in0.0 mm 0.00 in0.0 mm 0.05 in1.3 mm
03:06 AM 40.2°F4.6°C 39.2°F4.0°C 96% 1.0 mph ENE1.6 kmh ENE 4.0 mph6.4 kmh 29.58 in1001.7 mb 0.06 in1.5 mm 0.72 in18.3 mm 0.06 in1.5 mm
03:11 AM 40.3°F4.6°C 39.3°F4.1°C 96% Calm Calm 4.0 mph6.4 kmh 29.58 in1001.7 mb 0.06 in1.5 mm 0.00 in0.0 mm 0.06 in1.5 mm
03:16 AM 40.4°F4.7°C 39.4°F4.1°C 96% Calm Calm 4.0 mph6.4 kmh 29.57 in1001.4 mb 0.06 in1.5 mm 0.00 in0.0 mm 0.07 in1.8 mm
03:21 AM 40.4°F4.7°C 39.4°F4.1°C 96% Calm Calm 4.0 mph6.4 kmh 29.55 in1000.7 mb 0.06 in1.5 mm 0.00 in0.0 mm 0.07 in1.8 mm
03:26 AM 40.5°F4.7°C 39.5°F4.2°C 96% Calm Calm 4.0 mph6.4 kmh 29.55 in1000.7 mb 0.07 in1.8 mm 0.12 in3.0 mm 0.08 in2.0 mm
03:31 AM 40.5°F4.7°C 39.5°F4.2°C 96% Calm Calm 5.0 mph8.0 kmh 29.55 in1000.7 mb 0.07 in1.8 mm 0.00 in0.0 mm 0.08 in2.0 mm
03:36 AM 40.6°F4.8°C 39.5°F4.2°C 96% Calm Calm 5.0 mph8.0 kmh 29.55 in1000.7 mb 0.05 in1.3 mm 0.00 in0.0 mm 0.08 in2.0 mm
03:41 AM 40.7°F4.8°C 39.6°F4.2°C 96% Calm Calm 5.0 mph8.0 kmh 29.55 in1000.7 mb 0.00 in0.0 mm 0.00 in0.0 mm 0.08 in2.0 mm
03:46 AM 40.8°F4.9°C 39.7°F4.3°C 96% 2.0 mph ESE3.2 kmh ESE 3.0 mph4.8 kmh 29.55 in1000.7 mb 0.00 in0.0 mm 0.00 in0.0 mm 0.09 in2.3 mm
03:51 AM 40.8°F4.9°C 39.7°F4.3°C 96% 2.0 mph ENE3.2 kmh ENE 6.0 mph9.7 kmh 29.54 in1000.3 mb 1.50 in38.1 mm 18.00 in457.2 mm 0.11 in2.8 mm
03:56 AM 40.9°F4.9°C 39.8°F4.3°C 96% 2.0 mph SE3.2 kmh SE 6.0 mph9.7 kmh 29.54 in1000.3 mb 0.27 in6.9 mm 0.00 in0.0 mm 0.16 in4.1 mm
04:01 AM 41.0°F5.0°C 39.9°F4.4°C 96% 3.0 mph ESE4.8 kmh ESE 7.0 mph11.3 kmh 29.52 in999.7 mb 0.16 in4.1 mm 0.00 in0.0 mm 0.18 in4.6 mm
04:06 AM 41.1°F5.1°C 40.0°F4.4°C 96% 1.0 mph SSE1.6 kmh SSE 7.0 mph11.3 kmh 29.52 in999.7 mb 0.12 in3.0 mm 0.00 in0.0 mm 0.19 in4.8 mm
04:11 AM 41.3°F5.2°C 40.2°F4.6°C 96% 1.0 mph ESE1.6 kmh ESE 7.0 mph11.3 kmh 29.51 in999.3 mb 0.07 in1.8 mm 0.00 in0.0 mm 0.19 in4.8 mm
04:16 AM 41.4°F5.2°C 40.3°F4.6°C 96% 1.0 mph SE1.6 kmh SE 7.0 mph11.3 kmh 29.51 in999.3 mb 0.07 in1.8 mm 0.00 in0.0 mm 0.20 in5.1 mm
04:21 AM 41.5°F5.3°C 40.7°F4.8°C 97% 4.0 mph S6.4 kmh S 7.0 mph11.3 kmh 29.51 in999.3 mb 0.05 in1.3 mm 0.00 in0.0 mm 0.20 in5.1 mm
04:26 AM 41.7°F5.4°C 40.9°F4.9°C 97% 1.0 mph ESE1.6 kmh ESE 7.0 mph11.3 kmh 29.50 in999.0 mb 0.05 in1.3 mm 0.00 in0.0 mm 0.21 in5.3 mm
04:31 AM 41.9°F5.5°C 40.8°F4.9°C 96% 5.0 mph SE8.0 kmh SE 7.0 mph11.3 kmh 29.50 in999.0 mb 0.05 in1.3 mm 0.00 in0.0 mm 0.21 in5.3 mm
04:36 AM 42.0°F5.6°C 40.9°F4.9°C 96% 1.0 mph E1.6 kmh E 9.0 mph14.5 kmh 29.49 in998.6 mb 0.72 in18.3 mm 8.04 in204.2 mm 0.26 in6.6 mm
04:41 AM 42.1°F5.6°C 41.3°F5.2°C 97% Calm Calm -- 29.50 in999.0 mb 0.18 in4.6 mm 0.00 in0.0 mm 0.29 in7.4 mm
04:46 AM 42.1°F5.6°C 41.3°F5.2°C 97% Calm Calm 2.0 mph3.2 kmh 29.50 in999.0 mb 0.16 in4.1 mm 0.00 in0.0 mm 0.30 in7.6 mm
04:51 AM 42.2°F5.7°C 41.4°F5.2°C 97% 1.0 mph E1.6 kmh E 2.0 mph3.2 kmh 29.49 in998.6 mb 0.08 in2.0 mm 0.00 in0.0 mm 0.30 in7.6 mm
04:56 AM 42.3°F5.7°C 41.5°F5.3°C 97% 1.0 mph NNE1.6 kmh NNE 9.0 mph14.5 kmh 29.49 in998.6 mb 0.29 in7.4 mm 2.52 in64.0 mm 0.34 in8.6 mm
05:01 AM 42.4°F5.8°C 41.6°F5.3°C 97% 1.0 mph S1.6 kmh S 9.0 mph14.5 kmh 29.48 in998.3 mb 0.15 in3.8 mm 0.00 in0.0 mm 0.35 in8.9 mm
05:06 AM 42.5°F5.8°C 41.7°F5.4°C 97% 1.0 mph SE1.6 kmh SE 4.0 mph6.4 kmh 29.49 in998.6 mb 1.15 in29.2 mm 12.00 in304.8 mm 0.35 in8.9 mm
05:11 AM 42.7°F5.9°C 41.9°F5.5°C 97% 1.0 mph SE1.6 kmh SE 4.0 mph6.4 kmh 29.48 in998.3 mb 0.61 in15.5 mm 0.00 in0.0 mm 0.42 in10.7 mm
05:16 AM 42.7°F5.9°C 41.9°F5.5°C 97% 2.0 mph ESE3.2 kmh ESE 4.0 mph6.4 kmh 29.48 in998.3 mb 1.13 in28.7 mm 6.24 in158.5 mm 0.48 in12.2 mm
05:21 AM 42.9°F6.1°C 42.1°F5.6°C 97% 1.0 mph E1.6 kmh E 8.0 mph12.9 kmh 29.47 in998.0 mb 0.99 in25.1 mm 0.00 in0.0 mm 0.58 in14.7 mm
05:26 AM 43.3°F6.3°C 42.5°F5.8°C 97% 2.0 mph SE3.2 kmh SE 8.0 mph12.9 kmh 29.47 in998.0 mb 0.49 in12.4 mm 0.00 in0.0 mm 0.64 in16.3 mm
05:31 AM 43.5°F6.4°C 42.7°F5.9°C 97% 1.0 mph S1.6 kmh S 9.0 mph14.5 kmh 29.48 in998.3 mb 0.22 in5.6 mm 0.00 in0.0 mm 0.67 in17.0 mm
05:36 AM 43.7°F6.5°C 42.9°F6.1°C 97% 2.0 mph SSE3.2 kmh SSE 9.0 mph14.5 kmh 29.47 in998.0 mb 0.13 in3.3 mm 0.00 in0.0 mm 0.68 in17.3 mm
05:41 AM 43.8°F6.6°C 43.0°F6.1°C 97% Calm Calm 9.0 mph14.5 kmh 29.47 in998.0 mb 0.09 in2.3 mm 0.00 in0.0 mm 0.69 in17.5 mm
05:46 AM 44.1°F6.7°C 43.3°F6.3°C 97% 3.0 mph SSE4.8 kmh SSE 9.0 mph14.5 kmh 29.46 in997.6 mb 0.24 in6.1 mm 1.80 in45.7 mm 0.71 in18.0 mm
05:51 AM 44.3°F6.8°C 43.5°F6.4°C 97% 4.0 mph SE6.4 kmh SE 7.0 mph11.3 kmh 29.45 in997.3 mb 0.12 in3.0 mm 0.00 in0.0 mm 0.72 in18.3 mm
05:56 AM 44.6°F7.0°C 43.8°F6.6°C 97% 2.0 mph SE3.2 kmh SE 7.0 mph11.3 kmh 29.46 in997.6 mb 0.06 in1.5 mm 0.00 in0.0 mm 0.72 in18.3 mm
06:01 AM 44.8°F7.1°C 44.0°F6.7°C 97% 1.0 mph SE1.6 kmh SE 4.0 mph6.4 kmh 29.45 in997.3 mb 0.04 in1.0 mm 0.00 in0.0 mm 0.72 in18.3 mm
06:06 AM 44.9°F7.2°C 44.1°F6.7°C 97% Calm Calm 4.0 mph6.4 kmh 29.45 in997.3 mb 0.04 in1.0 mm 0.00 in0.0 mm 0.73 in18.5 mm
06:11 AM 45.0°F7.2°C 44.2°F6.8°C 97% 4.0 mph S6.4 kmh S 5.0 mph8.0 kmh 29.45 in997.3 mb 0.04 in1.0 mm 0.00 in0.0 mm 0.73 in18.5 mm
06:16 AM 45.4°F7.4°C 44.6°F7.0°C 97% 1.0 mph S1.6 kmh S 6.0 mph9.7 kmh 29.44 in997.0 mb 0.04 in1.0 mm 0.00 in0.0 mm 0.73 in18.5 mm
06:21 AM 45.8°F7.7°C 45.0°F7.2°C 97% 1.0 mph S1.6 kmh S 6.0 mph9.7 kmh 29.44 in997.0 mb 0.00 in0.0 mm 0.00 in0.0 mm 0.73 in18.5 mm
06:26 AM 46.2°F7.9°C 45.4°F7.4°C 97% 2.0 mph SE3.2 kmh SE 6.0 mph9.7 kmh 29.43 in996.6 mb 0.00 in0.0 mm 0.00 in0.0 mm 0.73 in18.5 mm
06:31 AM 46.4°F8.0°C 45.6°F7.6°C 97% 1.0 mph SE1.6 kmh SE 6.0 mph9.7 kmh 29.43 in996.6 mb 0.00 in0.0 mm 0.00 in0.0 mm 0.73 in18.5 mm
06:36 AM 46.5°F8.1°C 45.7°F7.6°C 97% 2.0 mph ESE3.2 kmh ESE 5.0 mph8.0 kmh 29.43 in996.6 mb 0.00 in0.0 mm 0.00 in0.0 mm 0.73 in18.5 mm
06:41 AM 46.8°F8.2°C 46.0°F7.8°C 97% 1.0 mph SSW1.6 kmh SSW 6.0 mph9.7 kmh 29.42 in996.3 mb 0.00 in0.0 mm 0.00 in0.0 mm 0.73 in18.5 mm
06:46 AM 47.2°F8.4°C 46.4°F8.0°C 97% Calm Calm 6.0 mph9.7 kmh 29.42 in996.3 mb 0.00 in0.0 mm 0.00 in0.0 mm 0.73 in18.5 mm
06:51 AM 47.5°F8.6°C 46.7°F8.2°C 97% 2.0 mph E3.2 kmh E 6.0 mph9.7 kmh 29.42 in996.3 mb 0.00 in0.0 mm 0.00 in0.0 mm 0.73 in18.5 mm
06:56 AM 48.0°F8.9°C 47.2°F8.4°C 97% Calm Calm 6.0 mph9.7 kmh 29.42 in996.3 mb 0.00 in0.0 mm 0.00 in0.0 mm 0.73 in18.5 mm
07:01 AM 48.2°F9.0°C 47.4°F8.6°C 97% 2.0 mph S3.2 kmh S 6.0 mph9.7 kmh 29.43 in996.6 mb 0.00 in0.0 mm 0.00 in0.0 mm 0.73 in18.5 mm
07:06 AM 48.5°F9.2°C 47.7°F8.7°C 97% 2.0 mph SSE3.2 kmh SSE 6.0 mph9.7 kmh 29.42 in996.3 mb 0.00 in0.0 mm 0.00 in0.0 mm 0.73 in18.5 mm
07:11 AM 49.0°F9.4°C 48.2°F9.0°C 97% 2.0 mph S3.2 kmh S 5.0 mph8.0 kmh 29.42 in996.3 mb 0.00 in0.0 mm 0.00 in0.0 mm 0.73 in18.5 mm
07:16 AM 49.3°F9.6°C 48.5°F9.2°C 97% 5.0 mph SSE8.0 kmh SSE 5.0 mph8.0 kmh 29.42 in996.3 mb 0.00 in0.0 mm 0.00 in0.0 mm 0.73 in18.5 mm
07:21 AM 49.4°F9.7°C 48.6°F9.2°C 97% 1.0 mph SE1.6 kmh SE 6.0 mph9.7 kmh 29.42 in996.3 mb 0.00 in0.0 mm 0.00 in0.0 mm 0.73 in18.5 mm
07:26 AM 49.6°F9.8°C 49.1°F9.5°C 98% 1.0 mph E1.6 kmh E 6.0 mph9.7 kmh 29.42 in996.3 mb 0.00 in0.0 mm 0.00 in0.0 mm 0.73 in18.5 mm
07:31 AM 49.6°F9.8°C 48.8°F9.3°C 97% Calm Calm 6.0 mph9.7 kmh 29.43 in996.6 mb 0.00 in0.0 mm 0.00 in0.0 mm 0.73 in18.5 mm
07:36 AM 49.7°F9.8°C 49.2°F9.6°C 98% Calm Calm 6.0 mph9.7 kmh 29.43 in996.6 mb 0.00 in0.0 mm 0.00 in0.0 mm 0.73 in18.5 mm
07:41 AM 49.7°F9.8°C 49.2°F9.6°C 98% 3.0 mph W4.8 kmh W 4.0 mph6.4 kmh 29.43 in996.6 mb 0.00 in0.0 mm 0.00 in0.0 mm 0.73 in18.5 mm
07:46 AM 50.0°F10.0°C 49.2°F9.6°C 97% 4.0 mph W6.4 kmh W 10.0 mph16.1 kmh 29.44 in997.0 mb 0.00 in0.0 mm 0.00 in0.0 mm 0.73 in18.5 mm
07:51 AM 50.5°F10.3°C 49.7°F9.8°C 97% 1.0 mph WSW1.6 kmh WSW 10.0 mph16.1 kmh 29.44 in997.0 mb 0.00 in0.0 mm 0.00 in0.0 mm 0.74 in18.8 mm
07:56 AM 50.8°F10.4°C 50.3°F10.2°C 98% 7.0 mph WSW11.3 kmh WSW 10.0 mph16.1 kmh 29.44 in997.0 mb 0.00 in0.0 mm 0.00 in0.0 mm 0.74 in18.8 mm
08:01 AM 51.2°F10.7°C 50.7°F10.4°C 98% 3.0 mph W4.8 kmh W 10.0 mph16.1 kmh 29.44 in997.0 mb 0.00 in0.0 mm 0.00 in0.0 mm 0.74 in18.8 mm
08:06 AM 51.7°F10.9°C 50.9°F10.5°C 97% 5.0 mph WSW8.0 kmh WSW 16.0 mph25.7 kmh 29.45 in997.3 mb 0.00 in0.0 mm 0.00 in0.0 mm 0.74 in18.8 mm
08:11 AM 51.3°F10.7°C 50.8°F10.4°C 98% 7.0 mph S11.3 kmh S 16.0 mph25.7 kmh 29.46 in997.6 mb 0.00 in0.0 mm 0.00 in0.0 mm 0.74 in18.8 mm
08:16 AM 50.7°F10.4°C 50.2°F10.1°C 98% 5.0 mph WNW8.0 kmh WNW 16.0 mph25.7 kmh 29.46 in997.6 mb 0.00 in0.0 mm 0.00 in0.0 mm 0.74 in18.8 mm
08:21 AM 50.5°F10.3°C 49.7°F9.8°C 97% 7.0 mph NW11.3 kmh NW 16.0 mph25.7 kmh 29.45 in997.3 mb 0.00 in0.0 mm 0.00 in0.0 mm 0.74 in18.8 mm
08:26 AM 50.4°F10.2°C 49.0°F9.4°C 95% 4.0 mph SW6.4 kmh SW 10.0 mph16.1 kmh 29.45 in997.3 mb 0.00 in0.0 mm 0.00 in0.0 mm 0.74 in18.8 mm
08:31 AM 50.1°F10.1°C 47.9°F8.8°C 92% 2.0 mph NW3.2 kmh NW 10.0 mph16.1 kmh 29.45 in997.3 mb 0.00 in0.0 mm 0.00 in0.0 mm 0.74 in18.8 mm
08:36 AM 49.8°F9.9°C 47.3°F8.5°C 91% 4.0 mph WNW6.4 kmh WNW 8.0 mph12.9 kmh 29.46 in997.6 mb 0.00 in0.0 mm 0.00 in0.0 mm 0.74 in18.8 mm
08:41 AM 49.6°F9.8°C 46.8°F8.2°C 90% 1.0 mph WNW1.6 kmh WNW 8.0 mph12.9 kmh 29.45 in997.3 mb 0.00 in0.0 mm 0.00 in0.0 mm 0.74 in18.8 mm
08:46 AM 49.5°F9.7°C 47.0°F8.3°C 91% 2.0 mph WNW3.2 kmh WNW 6.0 mph9.7 kmh 29.46 in997.6 mb 0.00 in0.0 mm 0.00 in0.0 mm 0.74 in18.8 mm
08:51 AM 49.4°F9.7°C 47.2°F8.4°C 92% 3.0 mph WSW4.8 kmh WSW 6.0 mph9.7 kmh 29.46 in997.6 mb 0.00 in0.0 mm 0.00 in0.0 mm 0.74 in18.8 mm
08:56 AM 49.2°F9.6°C 46.7°F8.2°C 91% Calm Calm 4.0 mph6.4 kmh 29.46 in997.6 mb 0.00 in0.0 mm 0.00 in0.0 mm 0.74 in18.8 mm
09:01 AM 49.2°F9.6°C 46.4°F8.0°C 90% 2.0 mph SSW3.2 kmh SSW 8.0 mph12.9 kmh 29.46 in997.6 mb 0.00 in0.0 mm 0.00 in0.0 mm 0.74 in18.8 mm
09:06 AM 49.1°F9.5°C 46.9°F8.3°C 92% Calm Calm 8.0 mph12.9 kmh 29.46 in997.6 mb 0.00 in0.0 mm 0.00 in0.0 mm 0.74 in18.8 mm
09:11 AM 49.1°F9.5°C 47.2°F8.4°C 93% Calm Calm 8.0 mph12.9 kmh 29.46 in997.6 mb 0.00 in0.0 mm 0.00 in0.0 mm 0.74 in18.8 mm
09:16 AM 49.1°F9.5°C 46.9°F8.3°C 92% 1.0 mph SW1.6 kmh SW 8.0 mph12.9 kmh 29.46 in997.6 mb 0.00 in0.0 mm 0.00 in0.0 mm 0.74 in18.8 mm
09:21 AM 49.0°F9.4°C 46.5°F8.1°C 91% 1.0 mph SW1.6 kmh SW 4.0 mph6.4 kmh 29.47 in998.0 mb 0.00 in0.0 mm 0.00 in0.0 mm 0.74 in18.8 mm
09:26 AM 48.9°F9.4°C 46.4°F8.0°C 91% 1.0 mph SW1.6 kmh SW 4.0 mph6.4 kmh 29.46 in997.6 mb 0.00 in0.0 mm 0.00 in0.0 mm 0.74 in18.8 mm
09:31 AM 49.1°F9.5°C 46.3°F7.9°C 90% 2.0 mph W3.2 kmh W 4.0 mph6.4 kmh 29.46 in997.6 mb 0.00 in0.0 mm 0.00 in0.0 mm 0.74 in18.8 mm
09:36 AM 49.3°F9.6°C 46.5°F8.1°C 90% 1.0 mph W1.6 kmh W 4.0 mph6.4 kmh 29.46 in997.6 mb 0.00 in0.0 mm 0.00 in0.0 mm 0.74 in18.8 mm
09:41 AM 49.4°F9.7°C 46.3°F7.9°C 89% 3.0 mph W4.8 kmh W 5.0 mph8.0 kmh 29.46 in997.6 mb 0.00 in0.0 mm 0.00 in0.0 mm 0.74 in18.8 mm
09:46 AM 49.6°F9.8°C 45.9°F7.7°C 87% 1.0 mph W1.6 kmh W 5.0 mph8.0 kmh 29.46 in997.6 mb 0.00 in0.0 mm 0.00 in0.0 mm 0.74 in18.8 mm
09:51 AM 49.9°F9.9°C 46.2°F7.9°C 87% 5.0 mph NW8.0 kmh NW 6.0 mph9.7 kmh 29.47 in998.0 mb 0.00 in0.0 mm 0.00 in0.0 mm 0.74 in18.8 mm
09:56 AM 50.2°F10.1°C 45.9°F7.7°C 85% 2.0 mph W3.2 kmh W 7.0 mph11.3 kmh 29.47 in998.0 mb 0.00 in0.0 mm 0.00 in0.0 mm 0.74 in18.8 mm
10:01 AM 50.5°F10.3°C 46.2°F7.9°C 85% 2.0 mph SSW3.2 kmh SSW 7.0 mph11.3 kmh 29.47 in998.0 mb 0.00 in0.0 mm 0.00 in0.0 mm 0.74 in18.8 mm
10:06 AM 50.7°F10.4°C 45.4°F7.4°C 82% 4.0 mph SSE6.4 kmh SSE 7.0 mph11.3 kmh 29.47 in998.0 mb 0.00 in0.0 mm 0.00 in0.0 mm 0.74 in18.8 mm
10:11 AM 50.9°F10.5°C 45.9°F7.7°C 83% 8.0 mph W12.9 kmh W 9.0 mph14.5 kmh 29.47 in998.0 mb 0.00 in0.0 mm 0.00 in0.0 mm 0.74 in18.8 mm
10:16 AM 51.1°F10.6°C 45.1°F7.3°C 80% 2.0 mph WSW3.2 kmh WSW 11.0 mph17.7 kmh 29.47 in998.0 mb 0.00 in0.0 mm 0.00 in0.0 mm 0.74 in18.8 mm
10:21 AM 51.3°F10.7°C 44.7°F7.1°C 78% 2.0 mph SSW3.2 kmh SSW 11.0 mph17.7 kmh 29.47 in998.0 mb 0.00 in0.0 mm 0.00 in0.0 mm 0.74 in18.8 mm
10:26 AM 51.4°F10.8°C 44.1°F6.7°C 76% 7.0 mph WNW11.3 kmh WNW 11.0 mph17.7 kmh 29.47 in998.0 mb 0.00 in0.0 mm 0.00 in0.0 mm 0.74 in18.8 mm
10:31 AM 51.7°F10.9°C 45.1°F7.3°C 78% 3.0 mph WSW4.8 kmh WSW 11.0 mph17.7 kmh 29.47 in998.0 mb 0.00 in0.0 mm 0.00 in0.0 mm 0.74 in18.8 mm
10:36 AM 52.0°F11.1°C 45.4°F7.4°C 78% 2.0 mph NW3.2 kmh NW 10.0 mph16.1 kmh 29.46 in997.6 mb 0.00 in0.0 mm 0.00 in0.0 mm 0.74 in18.8 mm
10:41 AM 52.2°F11.2°C 45.2°F7.3°C 77% 8.0 mph WSW12.9 kmh WSW 10.0 mph16.1 kmh 29.47 in998.0 mb 0.00 in0.0 mm 0.00 in0.0 mm 0.74 in18.8 mm
10:46 AM 52.4°F11.3°C 45.1°F7.3°C 76% 2.0 mph W3.2 kmh W 13.0 mph20.9 kmh 29.46 in997.6 mb 0.00 in0.0 mm 0.00 in0.0 mm 0.74 in18.8 mm
10:51 AM 52.6°F11.4°C 45.6°F7.6°C 77% 3.0 mph W4.8 kmh W 13.0 mph20.9 kmh 29.46 in997.6 mb 0.00 in0.0 mm 0.00 in0.0 mm 0.74 in18.8 mm
10:56 AM 52.7°F11.5°C 45.3°F7.4°C 76% 6.0 mph W9.7 kmh W 13.0 mph20.9 kmh 29.46 in997.6 mb 0.00 in0.0 mm 0.00 in0.0 mm 0.74 in18.8 mm
11:01 AM 53.1°F11.7°C 45.7°F7.6°C 76% 8.0 mph WSW12.9 kmh WSW 13.0 mph20.9 kmh 29.46 in997.6 mb 0.00 in0.0 mm 0.00 in0.0 mm 0.74 in18.8 mm
11:06 AM 53.3°F11.8°C 45.9°F7.7°C 76% 6.0 mph WSW9.7 kmh WSW 14.0 mph22.5 kmh 29.46 in997.6 mb 0.00 in0.0 mm 0.00 in0.0 mm 0.74 in18.8 mm
11:11 AM 53.6°F12.0°C 46.6°F8.1°C 77% 5.0 mph SW8.0 kmh SW 15.0 mph24.1 kmh 29.46 in997.6 mb 0.00 in0.0 mm 0.00 in0.0 mm 0.74 in18.8 mm
11:16 AM 53.6°F12.0°C 46.2°F7.9°C 76% 7.0 mph WSW11.3 kmh WSW 15.0 mph24.1 kmh 29.45 in997.3 mb 0.00 in0.0 mm 0.00 in0.0 mm 0.74 in18.8 mm
11:21 AM 53.5°F11.9°C 46.5°F8.1°C 77% 3.0 mph WSW4.8 kmh WSW 15.0 mph24.1 kmh 29.45 in997.3 mb 0.00 in0.0 mm 0.00 in0.0 mm 0.74 in18.8 mm
11:26 AM 53.7°F12.1°C 46.7°F8.2°C 77% 5.0 mph SW8.0 kmh SW 15.0 mph24.1 kmh 29.45 in997.3 mb 0.00 in0.0 mm 0.00 in0.0 mm 0.74 in18.8 mm
11:31 AM 53.9°F12.2°C 46.5°F8.1°C 76% 8.0 mph WSW12.9 kmh WSW 12.0 mph19.3 kmh 29.45 in997.3 mb 0.00 in0.0 mm 0.00 in0.0 mm 0.74 in18.8 mm
11:36 AM 54.2°F12.3°C 46.4°F8.0°C 75% 2.0 mph WSW3.2 kmh WSW 12.0 mph19.3 kmh 29.44 in997.0 mb 0.00 in0.0 mm 0.00 in0.0 mm 0.74 in18.8 mm
11:41 AM 54.6°F12.6°C 46.8°F8.2°C 75% 2.0 mph NW3.2 kmh NW 12.0 mph19.3 kmh 29.44 in997.0 mb 0.00 in0.0 mm 0.00 in0.0 mm 0.74 in18.8 mm
11:46 AM 55.1°F12.8°C 46.2°F7.9°C 72% 3.0 mph SSW4.8 kmh SSW 12.0 mph19.3 kmh 29.44 in997.0 mb 0.00 in0.0 mm 0.00 in0.0 mm 0.74 in18.8 mm
11:51 AM 55.3°F12.9°C 46.1°F7.8°C 71% 3.0 mph W4.8 kmh W 11.0 mph17.7 kmh 29.44 in997.0 mb 0.00 in0.0 mm 0.00 in0.0 mm 0.74 in18.8 mm
11:56 AM 55.4°F13.0°C 45.4°F7.4°C 69% 1.0 mph W1.6 kmh W 11.0 mph17.7 kmh 29.43 in996.6 mb 0.00 in0.0 mm 0.00 in0.0 mm 0.74 in18.8 mm
12:01 PM 55.7°F13.2°C 46.1°F7.8°C 70% 6.0 mph W9.7 kmh W 12.0 mph19.3 kmh 29.43 in996.6 mb 0.00 in0.0 mm 0.00 in0.0 mm 0.74 in18.8 mm
12:06 PM 55.4°F13.0°C 44.6°F7.0°C 67% 4.0 mph WSW6.4 kmh WSW 13.0 mph20.9 kmh 29.43 in996.6 mb 0.00 in0.0 mm 0.00 in0.0 mm 0.74 in18.8 mm
12:11 PM 55.3°F12.9°C 42.9°F6.1°C 63% 5.0 mph WSW8.0 kmh WSW 13.0 mph20.9 kmh 29.43 in996.6 mb 0.00 in0.0 mm 0.00 in0.0 mm 0.74 in18.8 mm
12:16 PM 55.5°F13.1°C 43.9°F6.6°C 65% 4.0 mph WSW6.4 kmh WSW 13.0 mph20.9 kmh 29.42 in996.3 mb 0.00 in0.0 mm 0.00 in0.0 mm 0.74 in18.8 mm
12:21 PM 55.9°F13.3°C 43.9°F6.6°C 64% 3.0 mph SW4.8 kmh SW 13.0 mph20.9 kmh 29.42 in996.3 mb 0.00 in0.0 mm 0.00 in0.0 mm 0.74 in18.8 mm
12:26 PM 56.5°F13.6°C 44.9°F7.2°C 65% 6.0 mph W9.7 kmh W 9.0 mph14.5 kmh 29.42 in996.3 mb 0.00 in0.0 mm 0.00 in0.0 mm 0.74 in18.8 mm
12:31 PM 56.6°F13.7°C 42.9°F6.1°C 60% 4.0 mph SW6.4 kmh SW 9.0 mph14.5 kmh 29.42 in996.3 mb 0.00 in0.0 mm 0.00 in0.0 mm 0.74 in18.8 mm
12:36 PM 56.3°F13.5°C 43.0°F6.1°C 61% 5.0 mph S8.0 kmh S 9.0 mph14.5 kmh 29.42 in996.3 mb 0.00 in0.0 mm 0.00 in0.0 mm 0.74 in18.8 mm
12:41 PM 56.2°F13.4°C 42.5°F5.8°C 60% 2.0 mph W3.2 kmh W 9.0 mph14.5 kmh 29.42 in996.3 mb 0.00 in0.0 mm 0.00 in0.0 mm 0.74 in18.8 mm
12:46 PM 56.5°F13.6°C 43.6°F6.4°C 62% 11.0 mph S17.7 kmh S 12.0 mph19.3 kmh 29.41 in995.9 mb 0.00 in0.0 mm 0.00 in0.0 mm 0.74 in18.8 mm
12:51 PM 56.3°F13.5°C 41.7°F5.4°C 58% 5.0 mph SW8.0 kmh SW 12.0 mph19.3 kmh 29.41 in995.9 mb 0.00 in0.0 mm 0.00 in0.0 mm 0.74 in18.8 mm
12:56 PM 56.2°F13.4°C 40.2°F4.6°C 55% 1.0 mph WSW1.6 kmh WSW 12.0 mph19.3 kmh 29.41 in995.9 mb 0.00 in0.0 mm 0.00 in0.0 mm 0.74 in18.8 mm
01:01 PM 55.7°F13.2°C 40.2°F4.6°C 56% 4.0 mph SW6.4 kmh SW 13.0 mph20.9 kmh 29.40 in995.6 mb 0.00 in0.0 mm 0.00 in0.0 mm 0.74 in18.8 mm
01:06 PM 55.9°F13.3°C 42.2°F5.7°C 60% 9.0 mph WSW14.5 kmh WSW 13.0 mph20.9 kmh 29.40 in995.6 mb 0.00 in0.0 mm 0.00 in0.0 mm 0.74 in18.8 mm
01:11 PM 56.0°F13.3°C 41.9°F5.5°C 59% 1.0 mph W1.6 kmh W 13.0 mph20.9 kmh 29.40 in995.6 mb 0.00 in0.0 mm 0.00 in0.0 mm 0.74 in18.8 mm
01:16 PM 55.9°F13.3°C 41.8°F5.4°C 59% 8.0 mph SW12.9 kmh SW 15.0 mph24.1 kmh 29.40 in995.6 mb 0.00 in0.0 mm 0.00 in0.0 mm 0.74 in18.8 mm
01:21 PM 55.5°F13.1°C 40.1°F4.5°C 56% 8.0 mph SW12.9 kmh SW 15.0 mph24.1 kmh 29.40 in995.6 mb 0.00 in0.0 mm 0.00 in0.0 mm 0.74 in18.8 mm
01:26 PM 55.4°F13.0°C 40.9°F4.9°C 58% 1.0 mph SW1.6 kmh SW 15.0 mph24.1 kmh 29.39 in995.3 mb 0.00 in0.0 mm 0.00 in0.0 mm 0.74 in18.8 mm
01:31 PM 55.4°F13.0°C 42.2°F5.7°C 61% 4.0 mph WNW6.4 kmh WNW 15.0 mph24.1 kmh 29.40 in995.6 mb 0.00 in0.0 mm 0.00 in0.0 mm 0.74 in18.8 mm
01:36 PM 55.2°F12.9°C 41.1°F5.1°C 59% 6.0 mph W9.7 kmh W 8.0 mph12.9 kmh 29.40 in995.6 mb 0.00 in0.0 mm 0.00 in0.0 mm 0.74 in18.8 mm
01:41 PM 54.8°F12.7°C 41.2°F5.1°C 60% 2.0 mph WSW3.2 kmh WSW 28.0 mph45.1 kmh 29.41 in995.9 mb 0.00 in0.0 mm 0.00 in0.0 mm 0.74 in18.8 mm
01:46 PM 53.4°F11.9°C 40.7°F4.8°C 62% 5.0 mph WNW8.0 kmh WNW 28.0 mph45.1 kmh 29.41 in995.9 mb 0.00 in0.0 mm 0.00 in0.0 mm 0.74 in18.8 mm
01:51 PM 52.7°F11.5°C 39.6°F4.2°C 61% 4.0 mph SSE6.4 kmh SSE 28.0 mph45.1 kmh 29.41 in995.9 mb 0.00 in0.0 mm 0.00 in0.0 mm 0.74 in18.8 mm
01:56 PM 52.9°F11.6°C 39.8°F4.3°C 61% 5.0 mph S8.0 kmh S 28.0 mph45.1 kmh 29.41 in995.9 mb 0.00 in0.0 mm 0.00 in0.0 mm 0.74 in18.8 mm
02:01 PM 53.0°F11.7°C 39.9°F4.4°C 61% 4.0 mph W6.4 kmh W 17.0 mph27.4 kmh 29.41 in995.9 mb 0.00 in0.0 mm 0.00 in0.0 mm 0.74 in18.8 mm
02:06 PM 53.0°F11.7°C 39.9°F4.4°C 61% 3.0 mph S4.8 kmh S 17.0 mph27.4 kmh 29.42 in996.3 mb 0.00 in0.0 mm 0.00 in0.0 mm 0.74 in18.8 mm
02:11 PM 52.7°F11.5°C 40.5°F4.7°C 63% 6.0 mph SW9.7 kmh SW 12.0 mph19.3 kmh 29.43 in996.6 mb 0.00 in0.0 mm 0.00 in0.0 mm 0.74 in18.8 mm
02:16 PM 51.9°F11.1°C 39.3°F4.1°C 62% 6.0 mph W9.7 kmh W 15.0 mph24.1 kmh 29.43 in996.6 mb 0.00 in0.0 mm 0.00 in0.0 mm 0.74 in18.8 mm
02:21 PM 51.0°F10.6°C 40.0°F4.4°C 66% 3.0 mph WNW4.8 kmh WNW 15.0 mph24.1 kmh 29.43 in996.6 mb 0.00 in0.0 mm 0.00 in0.0 mm 0.74 in18.8 mm
02:26 PM 50.3°F10.2°C 40.5°F4.7°C 69% 4.0 mph SW6.4 kmh SW 19.0 mph30.6 kmh 29.44 in997.0 mb 0.00 in0.0 mm 0.00 in0.0 mm 0.74 in18.8 mm
02:31 PM 50.2°F10.1°C 40.4°F4.7°C 69% 5.0 mph S8.0 kmh S 19.0 mph30.6 kmh 29.44 in997.0 mb 0.00 in0.0 mm 0.00 in0.0 mm 0.74 in18.8 mm
02:36 PM 50.2°F10.1°C 40.1°F4.5°C 68% 5.0 mph WSW8.0 kmh WSW 19.0 mph30.6 kmh 29.43 in996.6 mb 0.00 in0.0 mm 0.00 in0.0 mm 0.74 in18.8 mm
02:41 PM 49.9°F9.9°C 39.8°F4.3°C 68% 3.0 mph S4.8 kmh S 19.0 mph30.6 kmh 29.43 in996.6 mb 0.00 in0.0 mm 0.00 in0.0 mm 0.74 in18.8 mm
02:46 PM 49.5°F9.7°C 39.0°F3.9°C 67% 3.0 mph W4.8 kmh W 15.0 mph24.1 kmh 29.44 in997.0 mb 0.00 in0.0 mm 0.00 in0.0 mm 0.74 in18.8 mm
02:51 PM 49.3°F9.6°C 39.2°F4.0°C 68% 7.0 mph W11.3 kmh W 15.0 mph24.1 kmh 29.44 in997.0 mb 0.00 in0.0 mm 0.00 in0.0 mm 0.74 in18.8 mm
02:56 PM 49.0°F9.4°C 40.4°F4.7°C 72% 4.0 mph W6.4 kmh W 14.0 mph22.5 kmh 29.45 in997.3 mb 0.00 in0.0 mm 0.00 in0.0 mm 0.74 in18.8 mm
03:01 PM 48.9°F9.4°C 40.3°F4.6°C 72% 2.0 mph WSW3.2 kmh WSW 14.0 mph22.5 kmh 29.45 in997.3 mb 0.00 in0.0 mm 0.00 in0.0 mm 0.74 in18.8 mm
03:06 PM 48.7°F9.3°C 40.1°F4.5°C 72% 4.0 mph WSW6.4 kmh WSW 14.0 mph22.5 kmh 29.46 in997.6 mb 0.00 in0.0 mm 0.00 in0.0 mm 0.74 in18.8 mm
03:11 PM 48.6°F9.2°C 40.0°F4.4°C 72% 7.0 mph WSW11.3 kmh WSW 15.0 mph24.1 kmh 29.46 in997.6 mb 0.00 in0.0 mm 0.00 in0.0 mm 0.74 in18.8 mm
03:16 PM 48.1°F8.9°C 39.9°F4.4°C 73% 3.0 mph NW4.8 kmh NW 15.0 mph24.1 kmh 29.47 in998.0 mb 0.00 in0.0 mm 0.00 in0.0 mm 0.74 in18.8 mm
03:21 PM 47.7°F8.7°C 39.5°F4.2°C 73% 4.0 mph WNW6.4 kmh WNW 15.0 mph24.1 kmh 29.47 in998.0 mb 0.00 in0.0 mm 0.00 in0.0 mm 0.74 in18.8 mm
03:26 PM 47.2°F8.4°C 39.0°F3.9°C 73% 2.0 mph W3.2 kmh W 15.0 mph24.1 kmh 29.48 in998.3 mb 0.00 in0.0 mm 0.00 in0.0 mm 0.74 in18.8 mm
03:31 PM 46.9°F8.3°C 39.7°F4.3°C 76% 3.0 mph WNW4.8 kmh WNW 14.0 mph22.5 kmh 29.48 in998.3 mb 0.00 in0.0 mm 0.00 in0.0 mm 0.74 in18.8 mm
03:36 PM 46.6°F8.1°C 39.4°F4.1°C 76% 4.0 mph NW6.4 kmh NW 14.0 mph22.5 kmh 29.48 in998.3 mb 0.00 in0.0 mm 0.00 in0.0 mm 0.74 in18.8 mm
03:41 PM 46.3°F7.9°C 38.8°F3.8°C 75% 4.0 mph W6.4 kmh W 13.0 mph20.9 kmh 29.49 in998.6 mb 0.00 in0.0 mm 0.00 in0.0 mm 0.74 in18.8 mm
03:46 PM 45.8°F7.7°C 38.3°F3.5°C 75% 7.0 mph WNW11.3 kmh WNW 13.0 mph20.9 kmh 29.49 in998.6 mb 0.00 in0.0 mm 0.00 in0.0 mm 0.74 in18.8 mm
03:51 PM 45.4°F7.4°C 38.3°F3.5°C 76% 7.0 mph NW11.3 kmh NW 11.0 mph17.7 kmh 29.50 in999.0 mb 0.00 in0.0 mm 0.00 in0.0 mm 0.74 in18.8 mm
03:56 PM 44.8°F7.1°C 36.3°F2.4°C 72% 5.0 mph WNW8.0 kmh WNW 18.0 mph29.0 kmh 29.50 in999.0 mb 0.00 in0.0 mm 0.00 in0.0 mm 0.74 in18.8 mm
04:01 PM 44.1°F6.7°C 36.0°F2.2°C 73% 2.0 mph W3.2 kmh W 18.0 mph29.0 kmh 29.51 in999.3 mb 0.00 in0.0 mm 0.00 in0.0 mm 0.74 in18.8 mm
04:06 PM 43.8°F6.6°C 36.1°F2.3°C 74% 3.0 mph NW4.8 kmh NW 21.0 mph33.8 kmh 29.51 in999.3 mb 0.00 in0.0 mm 0.00 in0.0 mm 0.74 in18.8 mm
04:11 PM 43.4°F6.3°C 35.3°F1.8°C 73% 11.0 mph NW17.7 kmh NW 21.0 mph33.8 kmh 29.52 in999.7 mb 0.00 in0.0 mm 0.00 in0.0 mm 0.74 in18.8 mm
04:16 PM 43.1°F6.2°C 35.4°F1.9°C 74% 4.0 mph NW6.4 kmh NW 21.0 mph33.8 kmh 29.52 in999.7 mb 0.00 in0.0 mm 0.00 in0.0 mm 0.74 in18.8 mm
04:21 PM 43.0°F6.1°C 35.6°F2.0°C 75% 7.0 mph NW11.3 kmh NW 21.0 mph33.8 kmh 29.52 in999.7 mb 0.00 in0.0 mm 0.00 in0.0 mm 0.74 in18.8 mm
04:26 PM 42.8°F6.0°C 35.1°F1.7°C 74% 2.0 mph WNW3.2 kmh WNW 9.0 mph14.5 kmh 29.53 in1000.0 mb 0.00 in0.0 mm 0.00 in0.0 mm 0.74 in18.8 mm
04:31 PM 42.6°F5.9°C 35.6°F2.0°C 76% 2.0 mph NW3.2 kmh NW 11.0 mph17.7 kmh 29.53 in1000.0 mb 0.00 in0.0 mm 0.00 in0.0 mm 0.74 in18.8 mm
04:36 PM 42.4°F5.8°C 34.7°F1.5°C 74% 5.0 mph NW8.0 kmh NW 12.0 mph19.3 kmh 29.53 in1000.0 mb 0.00 in0.0 mm 0.00 in0.0 mm 0.74 in18.8 mm
04:41 PM 42.2°F5.7°C 34.9°F1.6°C 75% 5.0 mph WNW8.0 kmh WNW 12.0 mph19.3 kmh 29.53 in1000.0 mb 0.00 in0.0 mm 0.00 in0.0 mm 0.74 in18.8 mm
04:46 PM 42.0°F5.6°C 35.0°F1.7°C 76% 3.0 mph WNW4.8 kmh WNW 12.0 mph19.3 kmh 29.54 in1000.3 mb 0.00 in0.0 mm 0.00 in0.0 mm 0.74 in18.8 mm
04:51 PM 41.6°F5.3°C 35.3°F1.8°C 78% 2.0 mph WSW3.2 kmh WSW 12.0 mph19.3 kmh 29.54 in1000.3 mb 0.00 in0.0 mm 0.00 in0.0 mm 0.74 in18.8 mm
04:56 PM 41.3°F5.2°C 35.3°F1.8°C 79% 4.0 mph WSW6.4 kmh WSW 11.0 mph17.7 kmh 29.54 in1000.3 mb 0.00 in0.0 mm 0.00 in0.0 mm 0.74 in18.8 mm
05:01 PM 41.0°F5.0°C 35.3°F1.8°C 80% 2.0 mph WSW3.2 kmh WSW 11.0 mph17.7 kmh 29.54 in1000.3 mb 0.00 in0.0 mm 0.00 in0.0 mm 0.74 in18.8 mm
05:06 PM 40.7°F4.8°C 35.6°F2.0°C 82% 2.0 mph W3.2 kmh W 10.0 mph16.1 kmh 29.55 in1000.7 mb 0.00 in0.0 mm 0.00 in0.0 mm 0.74 in18.8 mm
05:11 PM 40.6°F4.8°C 35.8°F2.1°C 83% 3.0 mph W4.8 kmh W 10.0 mph16.1 kmh 29.55 in1000.7 mb 0.00 in0.0 mm 0.00 in0.0 mm 0.74 in18.8 mm
05:16 PM 40.3°F4.6°C 35.2°F1.8°C 82% 7.0 mph WSW11.3 kmh WSW 9.0 mph14.5 kmh 29.55 in1000.7 mb 0.00 in0.0 mm 0.00 in0.0 mm 0.74 in18.8 mm
05:21 PM 40.3°F4.6°C 35.2°F1.8°C 82% 2.0 mph WSW3.2 kmh WSW 9.0 mph14.5 kmh 29.55 in1000.7 mb 0.00 in0.0 mm 0.00 in0.0 mm 0.74 in18.8 mm
05:26 PM 40.0°F4.4°C 35.0°F1.7°C 82% Calm Calm 10.0 mph16.1 kmh 29.56 in1001.0 mb 0.00 in0.0 mm 0.00 in0.0 mm 0.74 in18.8 mm
05:31 PM 39.9°F4.4°C 35.5°F1.9°C 84% 1.0 mph W1.6 kmh W 10.0 mph16.1 kmh 29.56 in1001.0 mb 0.00 in0.0 mm 0.00 in0.0 mm 0.74 in18.8 mm
05:36 PM 39.8°F4.3°C 35.4°F1.9°C 84% 2.0 mph W3.2 kmh W 10.0 mph16.1 kmh 29.57 in1001.4 mb 0.00 in0.0 mm 0.00 in0.0 mm 0.74 in18.8 mm
05:41 PM 39.7°F4.3°C 35.3°F1.8°C 84% 2.0 mph WNW3.2 kmh WNW 10.0 mph16.1 kmh 29.57 in1001.4 mb 0.00 in0.0 mm 0.00 in0.0 mm 0.74 in18.8 mm
05:46 PM 39.6°F4.2°C 35.2°F1.8°C 84% 4.0 mph NW6.4 kmh NW 7.0 mph11.3 kmh 29.57 in1001.4 mb 0.00 in0.0 mm 0.00 in0.0 mm 0.74 in18.8 mm
05:51 PM 39.4°F4.1°C 35.3°F1.8°C 85% 1.0 mph NW1.6 kmh NW 7.0 mph11.3 kmh 29.58 in1001.7 mb 0.00 in0.0 mm 0.00 in0.0 mm 0.74 in18.8 mm
05:56 PM 39.3°F4.1°C 35.5°F1.9°C 86% 6.0 mph W9.7 kmh W 6.0 mph9.7 kmh 29.58 in1001.7 mb 0.00 in0.0 mm 0.00 in0.0 mm 0.74 in18.8 mm
06:01 PM 39.2°F4.0°C 35.1°F1.7°C 85% 5.0 mph SW8.0 kmh SW 7.0 mph11.3 kmh 29.58 in1001.7 mb 0.00 in0.0 mm 0.00 in0.0 mm 0.74 in18.8 mm
06:06 PM 39.1°F3.9°C 35.3°F1.8°C 86% 6.0 mph WSW9.7 kmh WSW 7.0 mph11.3 kmh 29.59 in1002.0 mb 0.00 in0.0 mm 0.00 in0.0 mm 0.74 in18.8 mm
06:11 PM 39.1°F3.9°C 35.6°F2.0°C 87% 3.0 mph W4.8 kmh W 7.0 mph11.3 kmh 29.59 in1002.0 mb 0.00 in0.0 mm 0.00 in0.0 mm 0.74 in18.8 mm
06:16 PM 39.0°F3.9°C 34.9°F1.6°C 85% 4.0 mph W6.4 kmh W 10.0 mph16.1 kmh 29.59 in1002.0 mb 0.00 in0.0 mm 0.00 in0.0 mm 0.74 in18.8 mm
06:21 PM 38.9°F3.8°C 34.8°F1.6°C 85% Calm Calm 10.0 mph16.1 kmh 29.60 in1002.4 mb 0.00 in0.0 mm 0.00 in0.0 mm 0.74 in18.8 mm
06:26 PM 38.8°F3.8°C 34.7°F1.5°C 85% 3.0 mph WSW4.8 kmh WSW 10.0 mph16.1 kmh 29.60 in1002.4 mb 0.00 in0.0 mm 0.00 in0.0 mm 0.74 in18.8 mm
06:31 PM 38.7°F3.7°C 34.9°F1.6°C 86% 6.0 mph WSW9.7 kmh WSW 10.0 mph16.1 kmh 29.60 in1002.4 mb 0.00 in0.0 mm 0.00 in0.0 mm 0.74 in18.8 mm
06:36 PM 38.6°F3.7°C 34.5°F1.4°C 85% 1.0 mph NNW1.6 kmh NNW 10.0 mph16.1 kmh 29.60 in1002.4 mb 0.00 in0.0 mm 0.00 in0.0 mm 0.74 in18.8 mm
06:41 PM 38.6°F3.7°C 34.8°F1.6°C 86% 3.0 mph WNW4.8 kmh WNW 10.0 mph16.1 kmh 29.60 in1002.4 mb 0.00 in0.0 mm 0.00 in0.0 mm 0.74 in18.8 mm
06:46 PM 38.6°F3.7°C 34.5°F1.4°C 85% 2.0 mph WNW3.2 kmh WNW 7.0 mph11.3 kmh 29.60 in1002.4 mb 0.00 in0.0 mm 0.00 in0.0 mm 0.74 in18.8 mm
06:51 PM 38.5°F3.6°C 34.4°F1.3°C 85% 1.0 mph SW1.6 kmh SW 7.0 mph11.3 kmh 29.60 in1002.4 mb 0.00 in0.0 mm 0.00 in0.0 mm 0.74 in18.8 mm
06:56 PM 38.4°F3.6°C 34.3°F1.3°C 85% 1.0 mph W1.6 kmh W 4.0 mph6.4 kmh 29.61 in1002.7 mb 0.00 in0.0 mm 0.00 in0.0 mm 0.74 in18.8 mm
07:01 PM 38.3°F3.5°C 34.2°F1.2°C 85% 1.0 mph NW1.6 kmh NW 7.0 mph11.3 kmh 29.61 in1002.7 mb 0.00 in0.0 mm 0.00 in0.0 mm 0.74 in18.8 mm
07:06 PM 38.2°F3.4°C 34.1°F1.2°C 85% 3.0 mph WSW4.8 kmh WSW 7.0 mph11.3 kmh 29.61 in1002.7 mb 0.00 in0.0 mm 0.00 in0.0 mm 0.74 in18.8 mm
07:11 PM 38.2°F3.4°C 34.1°F1.2°C 85% 4.0 mph SW6.4 kmh SW 7.0 mph11.3 kmh 29.61 in1002.7 mb 0.00 in0.0 mm 0.00 in0.0 mm 0.74 in18.8 mm
07:16 PM 38.1°F3.4°C 33.7°F0.9°C 84% 3.0 mph WSW4.8 kmh WSW 9.0 mph14.5 kmh 29.61 in1002.7 mb 0.00 in0.0 mm 0.00 in0.0 mm 0.74 in18.8 mm
07:21 PM 38.0°F3.3°C 33.6°F0.9°C 84% 3.0 mph WSW4.8 kmh WSW 10.0 mph16.1 kmh 29.61 in1002.7 mb 0.00 in0.0 mm 0.00 in0.0 mm 0.74 in18.8 mm
07:26 PM 37.9°F3.3°C 33.2°F0.7°C 83% 3.0 mph WSW4.8 kmh WSW 10.0 mph16.1 kmh 29.61 in1002.7 mb 0.00 in0.0 mm 0.00 in0.0 mm 0.74 in18.8 mm
07:31 PM 37.9°F3.3°C 33.2°F0.7°C 83% 1.0 mph WNW1.6 kmh WNW 10.0 mph16.1 kmh 29.61 in1002.7 mb 0.00 in0.0 mm 0.00 in0.0 mm 0.74 in18.8 mm
07:36 PM 37.8°F3.2°C 33.1°F0.6°C 83% 6.0 mph W9.7 kmh W 10.0 mph16.1 kmh 29.61 in1002.7 mb 0.00 in0.0 mm 0.00 in0.0 mm 0.74 in18.8 mm
07:41 PM 37.6°F3.1°C 32.9°F0.5°C 83% 1.0 mph WSW1.6 kmh WSW 9.0 mph14.5 kmh 29.61 in1002.7 mb 0.00 in0.0 mm 0.00 in0.0 mm 0.74 in18.8 mm
07:46 PM 37.3°F2.9°C 32.6°F0.3°C 83% 3.0 mph SSW4.8 kmh SSW 9.0 mph14.5 kmh 29.61 in1002.7 mb 0.00 in0.0 mm 0.00 in0.0 mm 0.74 in18.8 mm
07:51 PM 37.3°F2.9°C 32.6°F0.3°C 83% 2.0 mph W3.2 kmh W 8.0 mph12.9 kmh 29.62 in1003.0 mb 0.00 in0.0 mm 0.00 in0.0 mm 0.74 in18.8 mm
07:56 PM 37.3°F2.9°C 32.9°F0.5°C 84% 3.0 mph W4.8 kmh W 11.0 mph17.7 kmh 29.62 in1003.0 mb 0.00 in0.0 mm 0.00 in0.0 mm 0.74 in18.8 mm
08:01 PM 37.4°F3.0°C 33.0°F0.6°C 84% 3.0 mph W4.8 kmh W 11.0 mph17.7 kmh 29.62 in1003.0 mb 0.00 in0.0 mm 0.00 in0.0 mm 0.74 in18.8 mm
08:06 PM 37.4°F3.0°C 33.0°F0.6°C 84% 6.0 mph W9.7 kmh W 11.0 mph17.7 kmh 29.62 in1003.0 mb 0.00 in0.0 mm 0.00 in0.0 mm 0.74 in18.8 mm
08:11 PM 37.5°F3.1°C 33.1°F0.6°C 84% 1.0 mph W1.6 kmh W 11.0 mph17.7 kmh 29.62 in1003.0 mb 0.00 in0.0 mm 0.00 in0.0 mm 0.74 in18.8 mm
08:16 PM 37.5°F3.1°C 33.4°F0.8°C 85% 2.0 mph W3.2 kmh W 8.0 mph12.9 kmh 29.62 in1003.0 mb 0.00 in0.0 mm 0.00 in0.0 mm 0.74 in18.8 mm
08:21 PM 37.3°F2.9°C 33.2°F0.7°C 85% 1.0 mph WSW1.6 kmh WSW 8.0 mph12.9 kmh 29.62 in1003.0 mb 0.00 in0.0 mm 0.00 in0.0 mm 0.74 in18.8 mm
08:26 PM 37.3°F2.9°C 33.2°F0.7°C 85% Calm Calm 6.0 mph9.7 kmh 29.62 in1003.0 mb 0.00 in0.0 mm 0.00 in0.0 mm 0.74 in18.8 mm
08:31 PM 37.1°F2.8°C 33.0°F0.6°C 85% 1.0 mph WSW1.6 kmh WSW 6.0 mph9.7 kmh 29.62 in1003.0 mb 0.00 in0.0 mm 0.00 in0.0 mm 0.74 in18.8 mm
08:36 PM 37.0°F2.8°C 33.2°F0.7°C 86% Calm Calm 4.0 mph6.4 kmh 29.62 in1003.0 mb 0.00 in0.0 mm 0.00 in0.0 mm 0.74 in18.8 mm
08:41 PM 37.0°F2.8°C 33.2°F0.7°C 86% Calm Calm 4.0 mph6.4 kmh 29.62 in1003.0 mb 0.00 in0.0 mm 0.00 in0.0 mm 0.74 in18.8 mm
08:46 PM 37.1°F2.8°C 33.3°F0.7°C 86% Calm Calm 4.0 mph6.4 kmh 29.62 in1003.0 mb 0.00 in0.0 mm 0.00 in0.0 mm 0.74 in18.8 mm
08:51 PM 37.1°F2.8°C 33.6°F0.9°C 87% 1.0 mph WSW1.6 kmh WSW 4.0 mph6.4 kmh 29.62 in1003.0 mb 0.00 in0.0 mm 0.00 in0.0 mm 0.74 in18.8 mm
08:56 PM 37.0°F2.8°C 33.8°F1.0°C 88% Calm Calm 2.0 mph3.2 kmh 29.63 in1003.4 mb 0.00 in0.0 mm 0.00 in0.0 mm 0.74 in18.8 mm
09:01 PM 37.0°F2.8°C 33.8°F1.0°C 88% Calm Calm 6.0 mph9.7 kmh 29.63 in1003.4 mb 0.00 in0.0 mm 0.00 in0.0 mm 0.74 in18.8 mm
09:06 PM 37.0°F2.8°C 34.1°F1.2°C 89% Calm Calm 1.0 mph1.6 kmh 29.63 in1003.4 mb 0.00 in0.0 mm 0.00 in0.0 mm 0.74 in18.8 mm
09:11 PM 37.0°F2.8°C 34.1°F1.2°C 89% Calm Calm 2.0 mph3.2 kmh 29.63 in1003.4 mb 0.00 in0.0 mm 0.00 in0.0 mm 0.74 in18.8 mm
09:16 PM 36.9°F2.7°C 34.2°F1.2°C 90% 1.0 mph SW1.6 kmh SW 2.0 mph3.2 kmh 29.63 in1003.4 mb 0.00 in0.0 mm 0.00 in0.0 mm 0.74 in18.8 mm
09:21 PM 36.9°F2.7°C 34.2°F1.2°C 90% Calm Calm -- 29.63 in1003.4 mb 0.00 in0.0 mm 0.00 in0.0 mm 0.74 in18.8 mm
09:26 PM 36.8°F2.7°C 34.1°F1.2°C 90% Calm Calm 2.0 mph3.2 kmh 29.63 in1003.4 mb 0.00 in0.0 mm 0.00 in0.0 mm 0.74 in18.8 mm
09:31 PM 36.8°F2.7°C 34.1°F1.2°C 90% Calm Calm 2.0 mph3.2 kmh 29.63 in1003.4 mb 0.00 in0.0 mm 0.00 in0.0 mm 0.74 in18.8 mm
09:36 PM 36.7°F2.6°C 34.3°F1.3°C 91% Calm Calm 2.0 mph3.2 kmh 29.63 in1003.4 mb 0.00 in0.0 mm 0.00 in0.0 mm 0.74 in18.8 mm
09:41 PM 36.7°F2.6°C 34.3°F1.3°C 91% 1.0 mph WSW1.6 kmh WSW 2.0 mph3.2 kmh 29.63 in1003.4 mb 0.00 in0.0 mm 0.00 in0.0 mm 0.74 in18.8 mm
09:46 PM 36.6°F2.6°C 34.2°F1.2°C 91% Calm Calm 2.0 mph3.2 kmh 29.63 in1003.4 mb 0.00 in0.0 mm 0.00 in0.0 mm 0.74 in18.8 mm
09:51 PM 36.5°F2.5°C 34.1°F1.2°C 91% Calm Calm -- 29.63 in1003.4 mb 0.00 in0.0 mm 0.00 in0.0 mm 0.74 in18.8 mm
09:56 PM 36.3°F2.4°C 33.9°F1.1°C 91% 1.0 mph WSW1.6 kmh WSW 2.0 mph3.2 kmh 29.63 in1003.4 mb 0.00 in0.0 mm 0.00 in0.0 mm 0.74 in18.8 mm
10:01 PM 36.1°F2.3°C 33.7°F0.9°C 91% Calm Calm 2.0 mph3.2 kmh 29.63 in1003.4 mb 0.00 in0.0 mm 0.00 in0.0 mm 0.74 in18.8 mm
10:06 PM 36.0°F2.2°C 33.9°F1.1°C 92% 1.0 mph S1.6 kmh S 7.0 mph11.3 kmh 29.63 in1003.4 mb 0.00 in0.0 mm 0.00 in0.0 mm 0.74 in18.8 mm
10:11 PM 36.0°F2.2°C 33.9°F1.1°C 92% 1.0 mph SW1.6 kmh SW 7.0 mph11.3 kmh 29.63 in1003.4 mb 0.00 in0.0 mm 0.00 in0.0 mm 0.74 in18.8 mm
10:16 PM 36.1°F2.3°C 34.3°F1.3°C 93% Calm Calm 7.0 mph11.3 kmh 29.63 in1003.4 mb 0.00 in0.0 mm 0.00 in0.0 mm 0.74 in18.8 mm
10:21 PM 36.1°F2.3°C 34.3°F1.3°C 93% 2.0 mph SSW3.2 kmh SSW 7.0 mph11.3 kmh 29.63 in1003.4 mb 0.00 in0.0 mm 0.00 in0.0 mm 0.74 in18.8 mm
10:26 PM 36.2°F2.3°C 34.4°F1.3°C 93% Calm Calm 1.0 mph1.6 kmh 29.63 in1003.4 mb 0.00 in0.0 mm 0.00 in0.0 mm 0.74 in18.8 mm
10:31 PM 36.1°F2.3°C 34.3°F1.3°C 93% 1.0 mph WSW1.6 kmh WSW 3.0 mph4.8 kmh 29.63 in1003.4 mb 0.00 in0.0 mm 0.00 in0.0 mm 0.74 in18.8 mm
10:36 PM 36.1°F2.3°C 34.3°F1.3°C 93% Calm Calm -- 29.63 in1003.4 mb 0.00 in0.0 mm 0.00 in0.0 mm 0.74 in18.8 mm
10:41 PM 36.1°F2.3°C 34.3°F1.3°C 93% Calm Calm 2.0 mph3.2 kmh 29.63 in1003.4 mb 0.00 in0.0 mm 0.00 in0.0 mm 0.74 in18.8 mm
10:46 PM 36.2°F2.3°C 34.4°F1.3°C 93% Calm Calm -- 29.63 in1003.4 mb 0.00 in0.0 mm 0.00 in0.0 mm 0.74 in18.8 mm
10:51 PM 36.2°F2.3°C 34.4°F1.3°C 93% 2.0 mph NW3.2 kmh NW 2.0 mph3.2 kmh 29.63 in1003.4 mb 0.00 in0.0 mm 0.00 in0.0 mm 0.74 in18.8 mm
10:56 PM 36.0°F2.2°C 34.2°F1.2°C 93% 1.0 mph NW1.6 kmh NW 2.0 mph3.2 kmh 29.63 in1003.4 mb 0.00 in0.0 mm 0.00 in0.0 mm 0.74 in18.8 mm
11:01 PM 35.9°F2.2°C 34.1°F1.2°C 93% 1.0 mph NW1.6 kmh NW 3.0 mph4.8 kmh 29.63 in1003.4 mb 0.00 in0.0 mm 0.00 in0.0 mm 0.74 in18.8 mm
11:06 PM 35.8°F2.1°C 33.7°F0.9°C 92% 1.0 mph NW1.6 kmh NW 3.0 mph4.8 kmh 29.63 in1003.4 mb 0.00 in0.0 mm 0.00 in0.0 mm 0.74 in18.8 mm
11:11 PM 35.6°F2.0°C 33.5°F0.8°C 92% 1.0 mph NW1.6 kmh NW 3.0 mph4.8 kmh 29.63 in1003.4 mb 0.00 in0.0 mm 0.00 in0.0 mm 0.74 in18.8 mm
11:16 PM 35.4°F1.9°C 33.3°F0.7°C 92% 1.0 mph NNW1.6 kmh NNW 3.0 mph4.8 kmh 29.63 in1003.4 mb 0.00 in0.0 mm 0.00 in0.0 mm 0.74 in18.8 mm
11:21 PM 35.3°F1.8°C 33.2°F0.7°C 92% 1.0 mph NW1.6 kmh NW 3.0 mph4.8 kmh 29.63 in1003.4 mb 0.00 in0.0 mm 0.00 in0.0 mm 0.74 in18.8 mm
11:26 PM 35.1°F1.7°C 33.0°F0.6°C 92% Calm Calm 3.0 mph4.8 kmh 29.63 in1003.4 mb 0.00 in0.0 mm 0.00 in0.0 mm 0.74 in18.8 mm
11:31 PM 35.0°F1.7°C 32.9°F0.5°C 92% Calm Calm -- 29.64 in1003.7 mb 0.00 in0.0 mm 0.00 in0.0 mm 0.75 in19.1 mm
11:36 PM 35.0°F1.7°C 33.2°F0.7°C 93% Calm Calm -- 29.64 in1003.7 mb 0.00 in0.0 mm 0.00 in0.0 mm 0.75 in19.1 mm
11:41 PM 34.9°F1.6°C 33.1°F0.6°C 93% Calm Calm -- 29.64 in1003.7 mb 0.00 in0.0 mm 0.00 in0.0 mm 0.75 in19.1 mm
11:46 PM 34.8°F1.6°C 33.0°F0.6°C 93% Calm Calm -- 29.64 in1003.7 mb 0.00 in0.0 mm 0.00 in0.0 mm 0.75 in19.1 mm
11:51 PM 34.7°F1.5°C 32.9°F0.5°C 93% Calm Calm -- 29.64 in1003.7 mb 0.00 in0.0 mm 0.00 in0.0 mm 0.75 in19.1 mm
11:56 PM 34.6°F1.4°C 32.8°F0.4°C 93% Calm Calm 2.0 mph3.2 kmh 29.64 in1003.7 mb 0.00 in0.0 mm 0.00 in0.0 mm 0.75 in19.1 mm